Latest Weather Observations for Maatsuyker Island

IDT60801

Issued at 9:05 pm EST Monday 1 September 2014 (issued every 30 minutes, with the page automatically refreshed every 10 minutes)

About weather observations | Map of weather stations | Latest weather observations for TAS | Other Formats
Station Details ID: 094041 Name: MAATSUYKER ISLAND LIGHTHOUSE Lat: -43.66 Lon: 146.27 Height: 146.5 m
Data from the previous 72 hours. | See also: Recent months at Maatsuyker Island
Date/Time
EST
Temp
°C
App
Temp
°C
Dew
Point
Rel
Hum
%
Delta-T
°C
Wind Press
QNH
hPa
Press
MSL
hPa
Rain
since 9 am
mm
Dir
 
Spd
km/h
Gust
km/h
Spd
kts
Gust
kts
01/09:00pm 7.8 -2.7 3.4 74 1.9 S 48 54 26 29 1010.4 1010.5 8.6
01/08:30pm 8.0 -3.1 4.6 79 1.5 S 52 59 28 32 1009.7 - 8.6
01/08:00pm 8.0 -1.8 5.3 83 1.2 S 46 52 25 28 1009.5 - 8.6
01/07:59pm 8.0 -1.8 5.3 83 1.2 S 46 52 25 28 1009.5 - 8.6
01/07:54pm 7.9 1.6 5.5 85 1.1 ESE 28 46 15 25 1009.6 - 8.6
01/07:47pm 8.0 0.1 4.6 79 1.5 SE 35 44 19 24 1009.5 - 8.6
01/07:30pm 7.3 -2.2 4.8 84 1.1 S 44 76 24 41 1009.4 - 8.0
01/07:27pm 8.8 -0.5 5.0 77 1.7 S 43 76 23 41 1008.7 - 7.0
01/07:00pm 8.1 -2.6 2.7 69 2.3 S 48 56 26 30 1008.4 - 7.0
01/06:30pm 8.6 -0.1 4.1 73 2.0 SSE 39 46 21 25 1008.0 - 7.0
01/06:20pm 8.6 -0.1 4.3 74 1.9 SSE 39 46 21 25 1007.8 - 7.0
01/06:12pm 8.5 3.7 4.5 76 1.8 ESE 19 46 10 25 1007.6 - 7.0
01/06:00pm 8.6 -0.4 4.3 74 1.9 SSE 41 48 22 26 1007.4 1007.4 7.0
01/05:57pm 8.5 -1.1 4.5 76 1.8 SSE 44 50 24 27 1007.3 - 7.0
01/05:30pm 8.7 1.5 4.9 77 1.7 SE 32 50 17 27 1006.9 - 7.0
01/05:03pm 8.8 1.7 5.5 80 1.5 SE 32 50 17 27 1006.4 - 7.0
01/05:00pm 8.9 1.6 5.6 80 1.5 SSE 33 50 18 27 1006.2 - 7.0
01/04:30pm 9.0 0.2 5.7 80 1.5 SSE 41 50 22 27 1005.7 - 7.0
01/04:00pm 9.0 1.9 5.5 79 1.6 SE 32 46 17 25 1005.4 - 7.0
01/03:54pm 8.9 2.2 5.6 80 1.5 SE 30 44 16 24 1005.4 - 7.0
01/03:50pm 9.0 0.6 5.5 79 1.6 S 39 44 21 24 1005.3 - 7.0
01/03:30pm 8.9 2.8 4.9 76 1.8 SE 26 43 14 23 1005.2 - 7.0
01/03:21pm 9.0 0.8 5.0 76 1.8 SSE 37 43 20 23 1004.9 - 7.0
01/03:00pm 8.9 2.8 4.9 76 1.8 SE 26 37 14 20 1004.8 1005.0 7.0
01/02:30pm 8.5 4.3 5.7 82 1.3 ESE 17 30 9 16 1004.6 - 7.0
01/02:00pm 8.6 3.9 6.0 84 1.2 ESE 20 32 11 17 1004.2 - 7.0
01/01:30pm 8.3 1.1 5.9 85 1.1 SE 33 57 18 31 1003.8 - 7.0
01/01:28pm 8.3 1.3 6.1 86 1.0 ESE 32 57 17 31 1003.7 - 7.0
01/01:27pm 8.3 2.8 6.1 86 1.0 ESE 24 57 13 31 1003.7 - 7.0
01/01:00pm 7.9 -3.7 5.7 86 1.0 SSE 56 63 30 34 1003.6 - 7.0
01/12:30pm 7.8 -4.7 6.1 89 0.8 S 61 70 33 38 1003.6 - 6.8
01/12:15pm 7.8 -4.3 6.3 90 0.7 S 59 70 32 38 1003.6 - 6.6
01/12:06pm 8.1 -1.8 6.8 91 0.6 SSE 48 69 26 37 1003.5 - 6.4
01/12:00pm 8.1 -0.9 6.6 90 0.7 SE 43 57 23 31 1003.5 1003.6 6.4
01/11:58am 8.1 -0.9 6.6 90 0.7 SE 43 59 23 32 1003.5 - 6.4
01/11:39am 8.2 -2.4 7.1 93 0.5 S 52 72 28 39 1002.9 - 5.8
01/11:30am 8.1 -2.6 6.6 90 0.7 S 52 57 28 31 1003.5 - 5.6
01/11:00am 8.0 -3.6 6.7 91 0.6 S 57 65 31 35 1003.0 - 5.0
01/10:30am 8.6 -2.2 7.6 93 0.5 SSE 54 59 29 32 1002.7 - 4.4
01/10:00am 8.4 -1.8 7.1 91 0.6 SSE 50 63 27 34 1002.3 - 3.6
01/09:31am 8.5 -0.2 7.9 96 0.3 SSE 43 61 23 33 1002.5 - 2.0
01/09:30am 8.5 -0.1 8.1 97 0.2 SSE 43 56 23 30 1002.5 - 2.0
01/09:14am 8.7 0.1 8.1 96 0.3 SSE 43 52 23 28 1002.5 - 0.8
01/09:06am 8.8 2.4 8.4 97 0.2 SE 32 50 17 27 1002.5 - 0.4
01/09:00am 9.0 2.9 8.4 96 0.3 SSE 30 52 16 28 1002.6 1002.6 7.2
01/08:45am 8.9 1.5 8.5 97 0.2 SSE 37 50 20 27 1003.0 - 5.8
01/08:38am 9.2 3.6 8.8 97 0.2 ESE 28 46 15 25 1002.7 - 5.4
01/08:35am 9.3 5.5 8.9 97 0.2 E 19 46 10 25 1002.8 - 5.2
01/08:33am 9.3 2.0 8.9 97 0.2 SE 37 46 20 25 1002.8 - 5.2
01/08:30am 9.5 6.1 9.1 97 0.2 ENE 17 46 9 25 1003.0 - 4.8
01/08:00am 9.6 2.8 9.2 97 0.2 S 35 39 19 21 1002.9 - 4.0
01/07:30am 10.2 6.5 9.6 96 0.3 S 19 20 10 11 1003.1 - 3.6
01/07:00am 10.1 6.8 9.5 96 0.3 W 17 20 9 11 1003.4 - 3.0
01/06:30am 10.0 3.2 9.4 96 0.3 NW 35 43 19 23 1002.8 - 2.6
01/06:00am 10.2 4.8 9.6 96 0.3 NW 28 50 15 27 1002.7 1002.7 1.6
01/05:50am 10.4 3.0 9.8 96 0.3 NW 39 57 21 31 1002.7 - 1.4
01/05:30am 11.1 0.3 9.9 92 0.6 NNW 57 76 31 41 1002.3 - 0.8
01/05:09am 11.3 -0.6 9.9 91 0.7 NNW 63 83 34 45 1001.0 - 0.4
01/05:00am 11.6 0.0 9.7 88 1.0 NNW 61 76 33 41 1001.1 - 0.2
01/04:30am 12.5 0.2 8.7 77 1.9 NNW 63 87 34 47 1000.8 - 0.0
01/04:00am 14.2 4.1 7.4 63 3.4 NNW 50 69 27 37 1001.6 - 0.0
01/03:35am 14.2 5.2 7.4 63 3.4 NNW 44 63 24 34 1001.5 - 0.0
01/03:30am 14.1 5.2 7.5 64 3.3 NNW 44 59 24 32 1001.6 - 0.0
01/03:00am 13.4 5.2 8.0 70 2.7 NNW 41 50 22 27 1001.9 1002.0 0.0
01/02:30am 14.0 7.3 7.4 64 3.3 NNW 32 44 17 24 1002.5 - 0.0
01/02:00am 14.7 7.5 6.1 56 4.2 NNW 33 44 18 24 1002.8 - 0.0
01/01:30am 15.2 3.9 5.4 52 4.7 NNW 54 72 29 39 1002.9 - 0.0
01/01:29am 15.2 3.9 5.4 52 4.7 NNW 54 72 29 39 1003.1 - 0.0
01/01:27am 15.4 3.6 4.9 49 5.0 NNW 56 69 30 37 1002.8 - 0.0
01/01:05am 15.2 7.4 4.9 50 4.9 NNW 35 54 19 29 1003.3 - 0.0
01/01:00am 15.4 7.9 4.4 48 5.2 N 33 50 18 27 1003.4 - 0.0
01/12:37am 15.1 7.3 5.0 51 4.8 NNW 35 54 19 29 1003.9 - 0.0
01/12:30am 15.4 7.1 4.1 47 5.3 N 37 54 20 29 1003.8 - 0.0
01/12:12am 16.0 7.8 2.6 40 6.1 N 35 56 19 30 1003.6 - 0.0
01/12:00am 15.9 8.1 2.8 41 6.0 N 33 50 18 27 1003.9 1004.1 0.0
 
Date/Time
EST
Temp
°C
App
Temp
°C
Dew
Point
Rel
Hum
%
Delta-T
°C
Wind Press
QNH
hPa
Press
MSL
hPa
Rain
since 9 am
mm
Dir
 
Spd
km/h
Gust
km/h
Spd
kts
Gust
kts
31/11:30pm 15.6 8.9 3.5 44 5.6 N 28 41 15 22 1004.6 - 0.0
31/11:00pm 15.5 9.6 3.9 46 5.4 N 24 35 13 19 1005.6 - 0.0
31/10:30pm 15.5 9.2 3.9 46 5.4 N 26 35 14 19 1006.1 - 0.0
31/10:00pm 15.6 9.7 4.1 46 5.4 N 24 32 13 17 1006.6 - 0.0
31/09:30pm 15.0 10.7 5.1 51 4.7 N 17 20 9 11 1007.0 - 0.0
31/09:00pm 15.6 9.8 4.3 47 5.3 NNW 24 32 13 17 1007.1 1007.3 0.0
31/08:30pm 15.6 10.3 5.2 50 5.0 N 22 28 12 15 1007.4 - 0.0
31/08:00pm 15.6 10.9 5.2 50 5.0 N 19 26 10 14 1007.5 - 0.0
31/07:30pm 16.0 10.7 4.9 47 5.3 N 22 30 12 16 1007.5 - 0.0
31/07:00pm 16.1 10.9 5.3 48 5.2 N 22 30 12 16 1007.8 - 0.0
31/06:30pm 16.0 11.4 5.4 49 5.1 N 19 24 10 13 1008.0 - 0.0
31/06:00pm 16.2 11.0 5.5 49 5.2 N 22 30 12 16 1008.1 1008.2 0.0
31/05:30pm 16.2 10.7 5.7 49 5.1 N 24 30 13 16 1008.1 - 0.0
31/05:00pm 16.4 10.4 5.5 48 5.3 N 26 32 14 17 1008.2 - 0.0
31/04:30pm 16.9 11.0 5.6 47 5.5 NNW 26 32 14 17 1008.2 - 0.0
31/04:00pm 16.6 10.9 4.7 45 5.7 N 24 35 13 19 1008.2 - 0.0
31/03:30pm 16.5 10.5 5.3 47 5.4 N 26 37 14 20 1008.6 - 0.0
31/03:00pm 16.6 12.6 4.7 45 5.7 N 15 35 8 19 1009.0 1009.1 0.0
31/02:30pm 16.1 8.9 4.8 47 5.4 N 32 46 17 25 1009.4 - 0.0
31/02:00pm 16.1 8.7 4.2 45 5.6 NNW 32 39 17 21 1009.7 - 0.0
31/01:30pm 16.3 9.3 3.9 43 5.8 NNW 30 39 16 21 1010.1 - 0.0
31/01:00pm 16.0 9.3 3.8 44 5.7 NNW 28 39 15 21 1010.7 - 0.0
31/12:30pm 16.0 10.1 3.8 44 5.7 N 24 33 13 18 1011.3 - 0.0
31/12:00pm 15.5 8.9 4.2 47 5.3 NNW 28 37 15 20 1011.7 1012.0 0.0
31/11:30am 15.0 8.3 3.7 46 5.2 N 28 37 15 20 1012.0 - 0.0
31/11:00am 15.1 8.2 2.7 43 5.6 N 28 37 15 20 1012.3 - 0.0
31/10:30am 15.0 8.0 1.9 41 5.8 N 28 37 15 20 1012.6 - 0.0
31/10:00am 14.5 8.4 3.0 46 5.2 N 24 33 13 18 1013.1 - 0.0
31/09:30am 14.2 8.1 2.6 45 5.2 N 24 33 13 18 1013.3 - 0.0
31/09:00am 13.8 8.6 2.6 46 5.0 N 19 35 10 19 1013.4 1013.6 0.0
31/08:30am 13.9 6.0 1.2 42 5.5 N 32 43 17 23 1013.6 - 0.0
31/08:00am 13.0 7.1 3.7 53 4.2 NNW 24 32 13 17 1013.9 - 0.0
31/07:30am 13.0 6.7 1.7 46 4.9 N 24 35 13 19 1013.9 - 0.0
31/07:00am 12.8 6.2 2.3 49 4.6 N 26 35 14 19 1014.0 - 0.0
31/06:30am 13.1 5.6 0.9 43 5.2 N 30 43 16 23 1013.8 - 0.0
31/06:20am 13.0 4.9 0.8 43 5.2 N 33 52 18 28 1013.9 - 0.0
31/06:00am 13.2 8.4 0.4 41 5.4 N 15 46 8 25 1013.8 1014.1 0.0
31/05:50am 12.8 5.2 0.8 44 5.1 N 30 48 16 26 1014.0 - 0.0
31/05:30am 12.6 5.6 2.0 48 4.6 NNW 28 43 15 23 1014.1 - 0.0
31/05:14am 12.8 5.2 0.8 44 5.1 NNW 30 48 16 26 1013.9 - 0.0
31/05:00am 12.5 5.8 1.3 46 4.8 NNW 26 39 14 21 1014.2 - 0.0
31/04:30am 11.6 5.8 2.4 53 4.0 N 22 35 12 19 1014.4 - 0.0
31/04:00am 10.9 6.6 3.4 60 3.3 N 15 20 8 11 1015.0 - 0.0
31/03:30am 11.3 5.4 2.0 53 4.0 N 22 30 12 16 1015.2 - 0.0
31/03:00am 10.5 5.2 4.8 68 2.6 N 22 24 12 13 1015.6 1016.0 0.0
31/02:30am 10.9 5.0 3.7 61 3.2 N 24 30 13 16 1015.9 - 0.0
31/02:00am 10.5 5.4 6.2 75 2.0 N 22 30 12 16 1016.4 - 0.0
31/01:30am 10.0 6.4 8.4 90 0.8 N 17 20 9 11 1017.0 - 0.0
31/01:00am 9.9 6.3 8.5 91 0.7 N 17 20 9 11 1017.3 - 0.0
31/12:30am 10.1 6.2 8.7 91 0.7 N 19 22 10 12 1017.6 - 0.0
31/12:00am 9.9 6.4 8.7 92 0.6 N 17 20 9 11 1017.8 1018.0 0.0
 
Date/Time
EST
Temp
°C
App
Temp
°C
Dew
Point
Rel
Hum
%
Delta-T
°C
Wind Press
QNH
hPa
Press
MSL
hPa
Rain
since 9 am
mm
Dir
 
Spd
km/h
Gust
km/h
Spd
kts
Gust
kts
30/11:30pm 10.3 6.2 8.0 86 1.1 N 19 22 10 12 1018.0 - 0.0
30/11:00pm 9.9 6.3 8.3 90 0.8 N 17 19 9 10 1018.5 - 0.0
30/10:30pm 10.2 6.1 7.7 84 1.2 N 19 20 10 11 1018.9 - 0.0
30/10:00pm 10.0 6.1 7.1 82 1.4 N 17 19 9 10 1019.1 - 0.0
30/09:30pm 10.5 6.7 7.6 82 1.4 N 17 19 9 10 1019.7 - 0.0
30/09:00pm 11.7 8.8 6.7 71 2.4 NE 11 13 6 7 1020.0 1020.2 0.0
30/08:30pm 11.3 9.0 7.4 77 1.9 NNE 9 24 5 13 1020.1 - 0.0
30/08:00pm 11.2 9.0 7.7 79 1.7 NNW 9 15 5 8 1020.3 - 0.0
30/07:30pm 11.3 8.0 8.0 80 1.6 N 15 24 8 13 1020.5 - 0.0
30/07:00pm 11.0 8.5 6.6 74 2.1 WNW 9 15 5 8 1020.7 - 0.0
30/06:30pm 10.9 8.9 7.1 77 1.8 WNW 7 11 4 6 1021.2 - 0.0
30/06:00pm 11.0 9.2 7.3 78 1.8 WNW 6 9 3 5 1021.6 1021.8 0.0
30/05:30pm 12.1 11.3 8.0 76 2.0 NNW 2 7 1 4 1021.9 - 0.0
30/05:00pm 12.5 11.0 8.5 76 2.0 N 6 11 3 6 1022.0 - 0.0
30/04:30pm 13.0 11.6 9.0 77 2.0 N 6 9 3 5 1022.3 - 0.0
30/04:00pm 13.4 11.9 8.6 73 2.4 NNE 6 11 3 6 1022.6 - 0.0
30/03:30pm 13.2 12.2 8.8 74 2.2 N 4 9 2 5 1023.0 - 0.0
30/03:00pm 13.5 12.1 7.4 66 3.0 N 4 11 2 6 1023.3 1023.6 0.0
30/02:30pm 12.9 12.8 9.4 79 1.8 CALM 0 6 0 3 1023.7 - 0.0
30/02:00pm 13.4 11.7 8.4 72 2.5 WSW 7 15 4 8 1023.9 - 0.0
30/01:30pm 13.3 11.6 7.6 68 2.8 SW 6 11 3 6 1024.2 - 0.0
30/01:00pm 13.8 11.6 7.7 66 3.0 NW 9 15 5 8 1024.5 - 0.0
30/12:30pm 12.7 11.7 8.7 76 2.0 ESE 4 7 2 4 1024.9 - 0.0
30/12:00pm 12.5 11.0 9.1 80 1.7 ESE 7 11 4 6 1025.4 1025.6 0.0
30/11:30am 13.1 12.2 9.2 77 2.0 N 4 11 2 6 1025.5 - 0.0
30/11:00am 12.1 11.2 9.3 83 1.4 NNE 4 7 2 4 1025.9 - 0.0
30/10:30am 12.3 11.2 8.5 77 1.9 NNE 4 7 2 4 1026.1 - 0.0
30/10:00am 12.8 12.5 8.6 75 2.1 CALM 0 6 0 3 1026.5 - 0.0
30/09:30am 12.8 12.5 8.8 76 2.0 CALM 0 0 0 0 1026.9 - 0.0
30/09:00am 11.8 9.9 7.5 75 2.1 N 7 13 4 7 1027.0 1027.3 0.2
30/08:30am 10.6 8.4 7.9 83 1.3 N 9 11 5 6 1027.1 - 0.2
30/08:00am 10.2 7.9 7.5 83 1.3 N 9 11 5 6 1027.3 - 0.2
30/07:30am 10.5 7.9 7.6 82 1.4 N 11 13 6 7 1027.4 - 0.2
30/07:00am 10.3 7.3 7.8 84 1.2 N 13 13 7 7 1027.3 - 0.0
30/06:30am 9.8 7.6 7.9 88 0.9 N 9 13 5 7 1027.2 - 0.0
30/06:00am 10.4 8.6 8.1 86 1.1 NNW 7 17 4 9 1027.1 1027.4 0.0
30/05:30am 10.6 7.7 8.1 84 1.2 N 13 15 7 8 1027.0 - 0.0
30/05:00am 10.2 7.8 8.6 90 0.8 N 11 13 6 7 1027.2 - 0.0
30/04:30am 9.8 7.7 8.4 91 0.7 N 9 11 5 6 1027.2 - 0.0
30/04:00am 10.2 7.0 8.4 89 0.9 N 15 17 8 9 1027.2 - 0.0
30/03:30am 10.1 7.9 8.0 87 1.0 N 9 13 5 7 1027.4 - 0.0
30/03:00am 10.4 7.9 8.4 87 1.0 N 11 13 6 7 1027.5 1027.9 0.0
30/02:30am 10.5 7.8 9.1 91 0.7 N 13 15 7 8 1027.7 - 0.0
30/02:00am 10.8 7.7 9.0 89 0.9 N 15 15 8 8 1028.0 - 0.0
30/01:30am 10.9 8.2 9.1 89 0.9 NNW 13 15 7 8 1028.2 - 0.0
30/01:00am 10.7 8.6 9.7 93 0.5 N 11 13 6 7 1028.3 - 0.0
30/12:30am 10.3 8.1 9.3 93 0.5 N 11 13 6 7 1028.3 - 0.0
30/12:00am 10.7 8.8 9.1 90 0.8 N 9 11 5 6 1028.3 1028.6 0.0
 
Date/Time
EST
Temp
°C
App
Temp
°C
Dew
Point
Rel
Hum
%
Delta-T
°C
Wind Press
QNH
hPa
Press
MSL
hPa
Rain
since 9 am
mm
Dir
 
Spd
km/h
Gust
km/h
Spd
kts
Gust
kts
29/11:30pm 10.9 9.0 8.9 87 1.0 NNW 9 11 5 6 1028.3 - 0.0
29/11:00pm 10.9 9.3 8.9 87 1.0 WNW 7 9 4 5 1028.4 - 0.0
29/10:30pm 10.9 9.4 9.1 89 0.9 WNW 7 7 4 4 1028.6 - 0.0
29/10:00pm 10.7 8.1 9.5 92 0.6 NW 13 13 7 7 1028.7 - 0.0
29/09:30pm 10.9 8.7 9.5 91 0.7 NNW 11 13 6 7 1028.6 - 0.0

Other Formats:

Comma delimited format used in spreadsheet applications
http://www.bom.gov.au/fwo/IDT60801/IDT60801.94962.axf

JavaScript Object Notation format (JSON) in row-major order
http://www.bom.gov.au/fwo/IDT60801/IDT60801.94962.json